sensor_id;sensor_type;location;lat;lon;timestamp;pressure;altitude;pressure_sealevel;temperature;humidity
38806;BME280;25635;51.146;17.162;2022-12-07T00:01:23;99665.01;;;1.64;97.30
38806;BME280;25635;51.146;17.162;2022-12-07T00:03:53;99659.00;;;1.65;97.18
38806;BME280;25635;51.146;17.162;2022-12-07T00:06:22;99659.47;;;1.67;97.14
38806;BME280;25635;51.146;17.162;2022-12-07T00:08:48;99656.97;;;1.70;97.06
38806;BME280;25635;51.146;17.162;2022-12-07T00:11:22;99657.40;;;1.71;97.04
38806;BME280;25635;51.146;17.162;2022-12-07T00:13:58;99661.22;;;1.68;97.25
38806;BME280;25635;51.146;17.162;2022-12-07T00:16:24;99656.45;;;1.66;97.21
38806;BME280;25635;51.146;17.162;2022-12-07T00:18:53;99660.72;;;1.64;97.12
38806;BME280;25635;51.146;17.162;2022-12-07T00:21:24;99655.52;;;1.62;97.19
38806;BME280;25635;51.146;17.162;2022-12-07T00:23:54;99655.09;;;1.61;97.14
38806;BME280;25635;51.146;17.162;2022-12-07T00:26:29;99650.33;;;1.61;97.34
38806;BME280;25635;51.146;17.162;2022-12-07T00:29:00;99642.98;;;1.59;97.53
38806;BME280;25635;51.146;17.162;2022-12-07T00:31:31;99646.45;;;1.59;97.19
38806;BME280;25635;51.146;17.162;2022-12-07T00:34:00;99649.03;;;1.61;97.27
38806;BME280;25635;51.146;17.162;2022-12-07T00:36:27;99646.92;;;1.62;97.43
38806;BME280;25635;51.146;17.162;2022-12-07T00:38:54;99645.64;;;1.62;97.22
38806;BME280;25635;51.146;17.162;2022-12-07T00:41:23;99640.05;;;1.62;97.13
38806;BME280;25635;51.146;17.162;2022-12-07T00:43:50;99631.06;;;1.64;97.14
38806;BME280;25635;51.146;17.162;2022-12-07T00:46:18;99638.41;;;1.66;97.08
38806;BME280;25635;51.146;17.162;2022-12-07T00:48:46;99639.27;;;1.67;97.05
38806;BME280;25635;51.146;17.162;2022-12-07T00:51:15;99637.13;;;1.66;96.94
38806;BME280;25635;51.146;17.162;2022-12-07T00:53:42;99637.98;;;1.67;96.89
38806;BME280;25635;51.146;17.162;2022-12-07T00:56:14;99634.51;;;1.65;96.95
38806;BME280;25635;51.146;17.162;2022-12-07T00:58:42;99640.48;;;1.62;97.07
38806;BME280;25635;51.146;17.162;2022-12-07T01:01:10;99641.30;;;1.59;96.99
38806;BME280;25635;51.146;17.162;2022-12-07T01:03:38;99642.98;;;1.57;97.08
38806;BME280;25635;51.146;17.162;2022-12-07T01:06:05;99639.46;;;1.54;97.21
38806;BME280;25635;51.146;17.162;2022-12-07T01:08:32;99648.05;;;1.54;97.16
38806;BME280;25635;51.146;17.162;2022-12-07T01:11:06;99645.95;;;1.55;97.18
38806;BME280;25635;51.146;17.162;2022-12-07T01:13:35;99646.38;;;1.56;97.46
38806;BME280;25635;51.146;17.162;2022-12-07T01:16:04;99644.19;;;1.54;97.13
38806;BME280;25635;51.146;17.162;2022-12-07T01:18:33;99642.12;;;1.57;97.42
38806;BME280;25635;51.146;17.162;2022-12-07T01:21:06;99643.84;;;1.58;97.15
38806;BME280;25635;51.146;17.162;2022-12-07T01:23:35;99635.24;;;1.57;97.25
38806;BME280;25635;51.146;17.162;2022-12-07T01:26:05;99630.95;;;1.58;97.04
38806;BME280;25635;51.146;17.162;2022-12-07T01:28:33;99624.08;;;1.58;97.08
38806;BME280;25635;51.146;17.162;2022-12-07T01:31:05;99625.41;;;1.60;97.14
38806;BME280;25635;51.146;17.162;2022-12-07T01:33:35;99627.55;;;1.60;97.03
38806;BME280;25635;51.146;17.162;2022-12-07T01:36:04;99633.14;;;1.60;97.00
38806;BME280;25635;51.146;17.162;2022-12-07T01:38:33;99636.14;;;1.59;97.15
38806;BME280;25635;51.146;17.162;2022-12-07T01:41:01;99629.66;;;1.58;97.05
38806;BME280;25635;51.146;17.162;2022-12-07T01:43:29;99633.56;;;1.59;96.99
38806;BME280;25635;51.146;17.162;2022-12-07T01:45:57;99634.39;;;1.58;97.08
38806;BME280;25635;51.146;17.162;2022-12-07T01:48:26;99627.13;;;1.59;97.03
38806;BME280;25635;51.146;17.162;2022-12-07T01:50:56;99632.70;;;1.60;97.00
38806;BME280;25635;51.146;17.162;2022-12-07T01:53:28;99628.41;;;1.61;97.04
38806;BME280;25635;51.146;17.162;2022-12-07T01:55:57;99631.38;;;1.59;96.88
38806;BME280;25635;51.146;17.162;2022-12-07T01:58:24;99628.41;;;1.59;97.03
38806;BME280;25635;51.146;17.162;2022-12-07T02:00:51;99630.09;;;1.57;97.10
38806;BME280;25635;51.146;17.162;2022-12-07T02:03:38;99637.36;;;1.56;97.12
38806;BME280;25635;51.146;17.162;2022-12-07T02:06:08;99636.06;;;1.55;97.10
38806;BME280;25635;51.146;17.162;2022-12-07T02:08:35;99636.06;;;1.55;97.11
38806;BME280;25635;51.146;17.162;2022-12-07T02:11:03;99636.02;;;1.53;97.38
38806;BME280;25635;51.146;17.162;2022-12-07T02:13:33;99639.85;;;1.52;97.34
38806;BME280;25635;51.146;17.162;2022-12-07T02:19:19;99630.88;;;1.53;97.55
38806;BME280;25635;51.146;17.162;2022-12-07T02:21:50;99634.27;;;1.52;97.45
38806;BME280;25635;51.146;17.162;2022-12-07T02:27:27;99631.65;;;1.49;97.38
38806;BME280;25635;51.146;17.162;2022-12-07T02:30:13;99629.50;;;1.49;97.37
38806;BME280;25635;51.146;17.162;2022-12-07T02:32:59;99627.74;;;1.48;97.35
38806;BME280;25635;51.146;17.162;2022-12-07T02:35:39;99625.16;;;1.48;97.49
38806;BME280;25635;51.146;17.162;2022-12-07T02:38:20;99625.13;;;1.46;97.44
38806;BME280;25635;51.146;17.162;2022-12-07T02:41:00;99626.84;;;1.46;97.30
38806;BME280;25635;51.146;17.162;2022-12-07T02:43:55;99628.99;;;1.46;97.44
38806;BME280;25635;51.146;17.162;2022-12-07T02:46:26;99633.67;;;1.44;97.26
38806;BME280;25635;51.146;17.162;2022-12-07T02:48:55;99629.81;;;1.44;97.36
38806;BME280;25635;51.146;17.162;2022-12-07T02:51:24;99625.08;;;1.43;97.33
38806;BME280;25635;51.146;17.162;2022-12-07T02:53:50;99623.80;;;1.43;97.21
38806;BME280;25635;51.146;17.162;2022-12-07T02:59:10;99621.52;;;1.36;97.51
38806;BME280;25635;51.146;17.162;2022-12-07T03:08:27;99622.26;;;1.31;97.63
38806;BME280;25635;51.146;17.162;2022-12-07T03:13:48;99617.92;;;1.28;97.57
38806;BME280;25635;51.146;17.162;2022-12-07T03:16:18;99622.64;;;1.29;97.61
38806;BME280;25635;51.146;17.162;2022-12-07T03:19:02;99630.41;;;1.30;97.88
38806;BME280;25635;51.146;17.162;2022-12-07T03:21:44;99629.13;;;1.30;97.61
38806;BME280;25635;51.146;17.162;2022-12-07T03:24:19;99619.25;;;1.31;97.72
38806;BME280;25635;51.146;17.162;2022-12-07T03:26:53;99612.37;;;1.30;97.66
38806;BME280;25635;51.146;17.162;2022-12-07T03:29:31;99613.67;;;1.32;97.62
38806;BME280;25635;51.146;17.162;2022-12-07T03:35:01;99615.43;;;1.33;97.60
38806;BME280;25635;51.146;17.162;2022-12-07T03:37:33;99613.75;;;1.35;97.62
38806;BME280;25635;51.146;17.162;2022-12-07T03:42:44;99614.10;;;1.31;97.82
38806;BME280;25635;51.146;17.162;2022-12-07T03:45:11;99604.61;;;1.29;97.72
38806;BME280;25635;51.146;17.162;2022-12-07T03:47:46;99599.46;;;1.29;97.66
38806;BME280;25635;51.146;17.162;2022-12-07T03:53:19;99601.17;;;1.28;97.68
38806;BME280;25635;51.146;17.162;2022-12-07T03:55:49;99596.88;;;1.29;97.70
38806;BME280;25635;51.146;17.162;2022-12-07T03:58:18;99600.32;;;1.29;97.55
38806;BME280;25635;51.146;17.162;2022-12-07T04:00:47;99603.80;;;1.31;97.70
38806;BME280;25635;51.146;17.162;2022-12-07T04:03:15;99593.06;;;1.30;97.56
38806;BME280;25635;51.146;17.162;2022-12-07T04:05:41;99595.20;;;1.31;97.53
38806;BME280;25635;51.146;17.162;2022-12-07T04:08:08;99601.26;;;1.33;97.54
38806;BME280;25635;51.146;17.162;2022-12-07T04:10:35;99599.55;;;1.33;97.66
38806;BME280;25635;51.146;17.162;2022-12-07T04:13:01;99602.13;;;1.33;97.47
38806;BME280;25635;51.146;17.162;2022-12-07T04:15:27;99599.11;;;1.34;97.51
38806;BME280;25635;51.146;17.162;2022-12-07T04:17:54;99593.10;;;1.33;97.67
38806;BME280;25635;51.146;17.162;2022-12-07T04:20:20;99597.78;;;1.31;97.65
38806;BME280;25635;51.146;17.162;2022-12-07T04:22:46;99603.32;;;1.29;97.74
38806;BME280;25635;51.146;17.162;2022-12-07T04:25:13;99601.56;;;1.26;97.64
38806;BME280;25635;51.146;17.162;2022-12-07T04:27:39;99601.52;;;1.25;97.88
38806;BME280;25635;51.146;17.162;2022-12-07T04:30:07;99602.38;;;1.24;97.79
38806;BME280;25635;51.146;17.162;2022-12-07T04:32:33;99610.50;;;1.23;97.85
38806;BME280;25635;51.146;17.162;2022-12-07T04:34:59;99604.06;;;1.23;97.79
38806;BME280;25635;51.146;17.162;2022-12-07T04:37:26;99600.23;;;1.25;97.86
38806;BME280;25635;51.146;17.162;2022-12-07T04:39:52;99596.80;;;1.24;97.88
38806;BME280;25635;51.146;17.162;2022-12-07T04:42:18;99596.84;;;1.26;97.92
38806;BME280;25635;51.146;17.162;2022-12-07T04:44:44;99593.88;;;1.28;97.85
38806;BME280;25635;51.146;17.162;2022-12-07T04:47:10;99601.17;;;1.28;97.99
38806;BME280;25635;51.146;17.162;2022-12-07T04:49:36;99597.31;;;1.28;97.87
38806;BME280;25635;51.146;17.162;2022-12-07T04:52:02;99596.84;;;1.27;98.12
38806;BME280;25635;51.146;17.162;2022-12-07T04:54:29;99595.13;;;1.26;98.19
38806;BME280;25635;51.146;17.162;2022-12-07T04:56:55;99596.37;;;1.25;98.00
38806;BME280;25635;51.146;17.162;2022-12-07T04:59:21;99597.70;;;1.26;98.11
38806;BME280;25635;51.146;17.162;2022-12-07T05:01:47;99595.16;;;1.28;98.00
38806;BME280;25635;51.146;17.162;2022-12-07T05:04:13;99595.59;;;1.29;97.99
38806;BME280;25635;51.146;17.162;2022-12-07T05:06:42;99593.88;;;1.29;97.77
38806;BME280;25635;51.146;17.162;2022-12-07T05:09:08;99599.07;;;1.31;97.69
38806;BME280;25635;51.146;17.162;2022-12-07T05:11:34;99596.49;;;1.31;97.57
38806;BME280;25635;51.146;17.162;2022-12-07T05:14:14;99592.62;;;1.31;97.60
38806;BME280;25635;51.146;17.162;2022-12-07T05:16:42;99590.02;;;1.29;97.68
38806;BME280;25635;51.146;17.162;2022-12-07T05:19:09;99589.55;;;1.27;97.81
38806;BME280;25635;51.146;17.162;2022-12-07T05:21:36;99586.97;;;1.27;97.89
38806;BME280;25635;51.146;17.162;2022-12-07T05:24:04;99592.55;;;1.26;97.98
38806;BME280;25635;51.146;17.162;2022-12-07T05:26:31;99593.88;;;1.28;98.16
38806;BME280;25635;51.146;17.162;2022-12-07T05:28:57;99590.41;;;1.27;98.58
38806;BME280;25635;51.146;17.162;2022-12-07T05:31:25;99590.41;;;1.27;98.24
38806;BME280;25635;51.146;17.162;2022-12-07T05:33:52;99590.02;;;1.29;98.37
38806;BME280;25635;51.146;17.162;2022-12-07T05:36:19;99584.00;;;1.29;98.81
38806;BME280;25635;51.146;17.162;2022-12-07T05:38:46;99589.62;;;1.30;98.38
38806;BME280;25635;51.146;17.162;2022-12-07T05:41:15;99587.52;;;1.32;98.63
38806;BME280;25635;51.146;17.162;2022-12-07T05:44:00;99593.95;;;1.32;98.61
38806;BME280;25635;51.146;17.162;2022-12-07T05:46:27;99591.38;;;1.32;98.79
38806;BME280;25635;51.146;17.162;2022-12-07T05:48:53;99595.29;;;1.35;98.73
38806;BME280;25635;51.146;17.162;2022-12-07T05:51:19;99584.98;;;1.35;98.81
38806;BME280;25635;51.146;17.162;2022-12-07T05:53:45;99592.75;;;1.37;98.79
38806;BME280;25635;51.146;17.162;2022-12-07T05:56:11;99581.12;;;1.35;98.76
38806;BME280;25635;51.146;17.162;2022-12-07T05:58:38;99587.56;;;1.35;98.83
38806;BME280;25635;51.146;17.162;2022-12-07T06:01:23;99596.62;;;1.37;98.73
38806;BME280;25635;51.146;17.162;2022-12-07T06:03:49;99591.03;;;1.37;98.79
38806;BME280;25635;51.146;17.162;2022-12-07T06:06:15;99593.61;;;1.37;98.52
38806;BME280;25635;51.146;17.162;2022-12-07T06:08:42;99585.92;;;1.39;98.37
38806;BME280;25635;51.146;17.162;2022-12-07T06:11:08;99577.80;;;1.41;98.37
38806;BME280;25635;51.146;17.162;2022-12-07T06:13:52;99586.81;;;1.41;98.03
38806;BME280;25635;51.146;17.162;2022-12-07T06:16:19;99586.81;;;1.41;97.94
38806;BME280;25635;51.146;17.162;2022-12-07T06:18:45;99587.25;;;1.40;97.81
38806;BME280;25635;51.146;17.162;2022-12-07T06:21:11;99585.56;;;1.43;97.74
38806;BME280;25635;51.146;17.162;2022-12-07T06:23:37;99578.23;;;1.40;97.61
38806;BME280;25635;51.146;17.162;2022-12-07T06:26:03;99579.52;;;1.40;97.50
38806;BME280;25635;51.146;17.162;2022-12-07T06:28:30;99580.80;;;1.40;97.36
38806;BME280;25635;51.146;17.162;2022-12-07T06:31:00;99587.68;;;1.41;97.32
38806;BME280;25635;51.146;17.162;2022-12-07T06:33:28;99589.00;;;1.43;97.35
38806;BME280;25635;51.146;17.162;2022-12-07T06:35:55;99579.95;;;1.41;97.34
38806;BME280;25635;51.146;17.162;2022-12-07T06:38:21;99584.28;;;1.43;97.04
38806;BME280;25635;51.146;17.162;2022-12-07T06:40:48;99586.86;;;1.43;97.04
38806;BME280;25635;51.146;17.162;2022-12-07T06:43:14;99592.01;;;1.43;96.90
38806;BME280;25635;51.146;17.162;2022-12-07T06:45:41;99587.68;;;1.41;96.58
38806;BME280;25635;51.146;17.162;2022-12-07T06:48:07;99593.26;;;1.41;96.30
38806;BME280;25635;51.146;17.162;2022-12-07T06:50:33;99593.69;;;1.40;96.43
38806;BME280;25635;51.146;17.162;2022-12-07T06:52:59;99587.25;;;1.40;96.39
38806;BME280;25635;51.146;17.162;2022-12-07T06:55:25;99585.53;;;1.41;95.99
38806;BME280;25635;51.146;17.162;2022-12-07T06:57:52;99585.06;;;1.40;96.21
38806;BME280;25635;51.146;17.162;2022-12-07T07:00:18;99586.78;;;1.39;95.90
38806;BME280;25635;51.146;17.162;2022-12-07T07:02:45;99595.38;;;1.40;96.01
38806;BME280;25635;51.146;17.162;2022-12-07T07:05:11;99597.09;;;1.39;95.95
38806;BME280;25635;51.146;17.162;2022-12-07T07:07:37;99594.98;;;1.40;95.81
38806;BME280;25635;51.146;17.162;2022-12-07T07:10:05;99591.97;;;1.41;95.75
38806;BME280;25635;51.146;17.162;2022-12-07T07:12:31;99587.25;;;1.40;95.55
38806;BME280;25635;51.146;17.162;2022-12-07T07:14:57;99592.80;;;1.40;95.59
38806;BME280;25635;51.146;17.162;2022-12-07T07:17:23;99586.81;;;1.41;95.54
38806;BME280;25635;51.146;17.162;2022-12-07T07:19:49;99590.22;;;1.40;95.42
38806;BME280;25635;51.146;17.162;2022-12-07T07:22:16;99585.06;;;1.40;95.23
38806;BME280;25635;51.146;17.162;2022-12-07T07:24:42;99584.20;;;1.39;95.26
38806;BME280;25635;51.146;17.162;2022-12-07T07:27:08;99591.08;;;1.39;95.02
38806;BME280;25635;51.146;17.162;2022-12-07T07:29:34;99587.64;;;1.38;95.18
38806;BME280;25635;51.146;17.162;2022-12-07T07:32:00;99588.45;;;1.37;94.82
38806;BME280;25635;51.146;17.162;2022-12-07T07:34:27;99585.49;;;1.39;95.19
38806;BME280;25635;51.146;17.162;2022-12-07T07:36:53;99586.78;;;1.39;94.85
38806;BME280;25635;51.146;17.162;2022-12-07T07:39:19;99580.80;;;1.40;94.78
38806;BME280;25635;51.146;17.162;2022-12-07T07:41:47;99583.85;;;1.43;94.83
38806;BME280;25635;51.146;17.162;2022-12-07T07:44:17;99589.00;;;1.43;94.81
38806;BME280;25635;51.146;17.162;2022-12-07T07:46:46;99586.43;;;1.43;94.91
38806;BME280;25635;51.146;17.162;2022-12-07T07:49:13;99592.91;;;1.45;95.01
38806;BME280;25635;51.146;17.162;2022-12-07T07:51:39;99583.93;;;1.48;95.31
38806;BME280;25635;51.146;17.162;2022-12-07T07:54:05;99586.08;;;1.48;94.92
38806;BME280;25635;51.146;17.162;2022-12-07T07:56:32;99581.43;;;1.51;94.86
38806;BME280;25635;51.146;17.162;2022-12-07T07:58:58;99583.62;;;1.53;94.76
38806;BME280;25635;51.146;17.162;2022-12-07T08:01:24;99586.27;;;1.57;94.99
38806;BME280;25635;51.146;17.162;2022-12-07T08:03:50;99582.02;;;1.61;94.94
38806;BME280;25635;51.146;17.162;2022-12-07T08:06:16;99579.94;;;1.65;94.62
38806;BME280;25635;51.146;17.162;2022-12-07T08:08:42;99575.68;;;1.66;94.32
38806;BME280;25635;51.146;17.162;2022-12-07T08:11:09;99588.58;;;1.67;93.71
38806;BME280;25635;51.146;17.162;2022-12-07T08:13:36;99583.41;;;1.66;93.75
38806;BME280;25635;51.146;17.162;2022-12-07T08:16:09;99590.72;;;1.66;93.89
38806;BME280;25635;51.146;17.162;2022-12-07T08:18:41;99597.20;;;1.69;94.02
38806;BME280;25635;51.146;17.162;2022-12-07T08:21:13;99594.66;;;1.71;94.13
38806;BME280;25635;51.146;17.162;2022-12-07T08:23:41;99592.13;;;1.72;92.89
38806;BME280;25635;51.146;17.162;2022-12-07T08:26:10;99588.26;;;1.72;92.99
38806;BME280;25635;51.146;17.162;2022-12-07T08:28:37;99589.55;;;1.72;91.57
38806;BME280;25635;51.146;17.162;2022-12-07T08:31:06;99592.13;;;1.72;92.69
38806;BME280;25635;51.146;17.162;2022-12-07T08:33:35;99591.23;;;1.70;92.58
38806;BME280;25635;51.146;17.162;2022-12-07T08:36:04;99589.08;;;1.71;92.87
38806;BME280;25635;51.146;17.162;2022-12-07T08:38:33;99587.40;;;1.73;93.15
38806;BME280;25635;51.146;17.162;2022-12-07T08:41:00;99592.13;;;1.72;91.85
38806;BME280;25635;51.146;17.162;2022-12-07T08:43:26;99583.09;;;1.72;90.94
38806;BME280;25635;51.146;17.162;2022-12-07T08:46:00;99587.00;;;1.74;91.93
38806;BME280;25635;51.146;17.162;2022-12-07T08:48:30;99587.05;;;1.77;91.86
38806;BME280;25635;51.146;17.162;2022-12-07T08:50:57;99586.69;;;1.80;91.28
38806;BME280;25635;51.146;17.162;2022-12-07T08:53:24;99585.39;;;1.80;89.88
38806;BME280;25635;51.146;17.162;2022-12-07T08:55:50;99578.09;;;1.81;91.43
38806;BME280;25635;51.146;17.162;2022-12-07T08:58:17;99572.54;;;1.83;90.27
38806;BME280;25635;51.146;17.162;2022-12-07T09:00:43;99574.72;;;1.86;90.95
38806;BME280;25635;51.146;17.162;2022-12-07T09:03:09;99572.22;;;1.90;90.90
38806;BME280;25635;51.146;17.162;2022-12-07T09:05:35;99564.98;;;1.94;91.22
38806;BME280;25635;51.146;17.162;2022-12-07T09:08:01;99567.66;;;2.00;91.36
38806;BME280;25635;51.146;17.162;2022-12-07T09:10:28;99564.30;;;2.05;90.01
38806;BME280;25635;51.146;17.162;2022-12-07T09:12:55;99561.34;;;2.08;88.46
38806;BME280;25635;51.146;17.162;2022-12-07T09:15:21;99555.83;;;2.12;88.37
38806;BME280;25635;51.146;17.162;2022-12-07T09:17:47;99559.36;;;2.18;91.05
38806;BME280;25635;51.146;17.162;2022-12-07T09:20:13;99556.45;;;2.25;90.11
38806;BME280;25635;51.146;17.162;2022-12-07T09:22:39;99553.53;;;2.30;89.53
38806;BME280;25635;51.146;17.162;2022-12-07T09:25:06;99551.05;;;2.38;89.00
38806;BME280;25635;51.146;17.162;2022-12-07T09:27:32;99542.10;;;2.44;89.95
38806;BME280;25635;51.146;17.162;2022-12-07T09:29:58;99542.66;;;2.51;89.19
38806;BME280;25635;51.146;17.162;2022-12-07T09:32:25;99539.76;;;2.59;90.69
38806;BME280;25635;51.146;17.162;2022-12-07T09:34:51;99537.23;;;2.66;88.15
38806;BME280;25635;51.146;17.162;2022-12-07T09:37:17;99535.59;;;2.71;87.56
38806;BME280;25635;51.146;17.162;2022-12-07T09:39:43;99535.67;;;2.77;85.12
38806;BME280;25635;51.146;17.162;2022-12-07T09:42:16;99527.09;;;2.79;85.21
38806;BME280;25635;51.146;17.162;2022-12-07T09:44:56;99528.46;;;2.86;85.60
38806;BME280;25635;51.146;17.162;2022-12-07T09:47:24;99516.89;;;2.89;84.67
38806;BME280;25635;51.146;17.162;2022-12-07T09:49:50;99516.94;;;2.93;85.48
38806;BME280;25635;51.146;17.162;2022-12-07T09:52:20;99514.38;;;2.96;85.88
38806;BME280;25635;51.146;17.162;2022-12-07T09:54:49;99507.13;;;3.02;86.48
38806;BME280;25635;51.146;17.162;2022-12-07T09:57:27;99504.64;;;3.11;86.88
38806;BME280;25635;51.146;17.162;2022-12-07T09:59:50;99509.85;;;3.16;86.02
38806;BME280;25635;51.146;17.162;2022-12-07T10:02:33;99513.32;;;3.18;84.55
38806;BME280;25635;51.146;17.162;2022-12-07T10:05:00;99516.77;;;3.17;84.28
38806;BME280;25635;51.146;17.162;2022-12-07T10:07:29;99510.28;;;3.15;85.04
38806;BME280;25635;51.146;17.162;2022-12-07T10:09:55;99503.41;;;3.17;83.59
38806;BME280;25635;51.146;17.162;2022-12-07T10:12:22;99497.39;;;3.17;83.35
38806;BME280;25635;51.146;17.162;2022-12-07T10:15:01;99492.67;;;3.19;83.73
38806;BME280;25635;51.146;17.162;2022-12-07T10:17:33;99484.94;;;3.21;83.77
38806;BME280;25635;51.146;17.162;2022-12-07T10:20:17;99480.69;;;3.24;85.26
38806;BME280;25635;51.146;17.162;2022-12-07T10:22:53;99478.11;;;3.28;84.58
38806;BME280;25635;51.146;17.162;2022-12-07T10:25:22;99466.51;;;3.29;82.58
38806;BME280;25635;51.146;17.162;2022-12-07T10:31:00;99468.19;;;3.25;80.52
38806;BME280;25635;51.146;17.162;2022-12-07T10:42:04;99465.17;;;3.24;80.64
38806;BME280;25635;51.146;17.162;2022-12-07T10:44:30;99467.71;;;3.21;78.54
38806;BME280;25635;51.146;17.162;2022-12-07T10:50:18;99476.74;;;3.18;80.90
38806;BME280;25635;51.146;17.162;2022-12-07T11:01:54;99471.73;;;2.93;84.87
38806;BME280;25635;51.146;17.162;2022-12-07T11:04:35;99474.73;;;2.91;85.53
38806;BME280;25635;51.146;17.162;2022-12-07T11:07:45;99462.64;;;2.90;85.15
38806;BME280;25635;51.146;17.162;2022-12-07T11:10:30;99457.87;;;2.85;84.51
38806;BME280;25635;51.146;17.162;2022-12-07T11:16:16;99462.15;;;2.83;84.21
38806;BME280;25635;51.146;17.162;2022-12-07T11:21:56;99470.73;;;2.80;85.26
38806;BME280;25635;51.146;17.162;2022-12-07T11:24:46;99459.49;;;2.77;85.69
38806;BME280;25635;51.146;17.162;2022-12-07T11:27:43;99452.08;;;2.69;85.72
38806;BME280;25635;51.146;17.162;2022-12-07T11:30:22;99452.02;;;2.66;86.38
38806;BME280;25635;51.146;17.162;2022-12-07T11:38:18;99443.39;;;2.63;86.59
38806;BME280;25635;51.146;17.162;2022-12-07T11:40:53;99438.25;;;2.65;86.07
38806;BME280;25635;51.146;17.162;2022-12-07T11:43:31;99436.97;;;2.65;86.37
38806;BME280;25635;51.146;17.162;2022-12-07T11:46:11;99439.55;;;2.65;86.50
38806;BME280;25635;51.146;17.162;2022-12-07T11:48:49;99433.55;;;2.66;85.57
38806;BME280;25635;51.146;17.162;2022-12-07T11:51:25;99430.53;;;2.67;86.37
38806;BME280;25635;51.146;17.162;2022-12-07T11:54:01;99437.02;;;2.68;86.48
38806;BME280;25635;51.146;17.162;2022-12-07T11:56:30;99433.98;;;2.67;85.68
38806;BME280;25635;51.146;17.162;2022-12-07T11:59:16;99431.86;;;2.68;86.46
38806;BME280;25635;51.146;17.162;2022-12-07T12:02:13;99427.52;;;2.67;86.41
38806;BME280;25635;51.146;17.162;2022-12-07T12:07:44;99427.97;;;2.70;86.00
38806;BME280;25635;51.146;17.162;2022-12-07T12:10:17;99432.28;;;2.69;86.17
38806;BME280;25635;51.146;17.162;2022-12-07T12:13:06;99426.28;;;2.72;86.74
38806;BME280;25635;51.146;17.162;2022-12-07T12:21:17;99430.61;;;2.73;85.88
38806;BME280;25635;51.146;17.162;2022-12-07T12:24:02;99436.18;;;2.71;84.10
38806;BME280;25635;51.146;17.162;2022-12-07T12:26:33;99427.56;;;2.72;84.48
38806;BME280;25635;51.146;17.162;2022-12-07T12:29:06;99431.92;;;2.74;85.34
38806;BME280;25635;51.146;17.162;2022-12-07T12:31:40;99426.36;;;2.76;85.92
38806;BME280;25635;51.146;17.162;2022-12-07T12:34:31;99434.09;;;2.78;86.38
38806;BME280;25635;51.146;17.162;2022-12-07T12:36:59;99422.08;;;2.78;85.78
38806;BME280;25635;51.146;17.162;2022-12-07T12:39:25;99428.53;;;2.78;84.95
38806;BME280;25635;51.146;17.162;2022-12-07T12:41:54;99427.64;;;2.78;85.27
38806;BME280;25635;51.146;17.162;2022-12-07T12:47:37;99424.25;;;2.80;84.65
38806;BME280;25635;51.146;17.162;2022-12-07T12:49:37;99418.67;;;2.82;84.82
38806;BME280;25635;51.146;17.162;2022-12-07T12:52:45;99416.55;;;2.85;84.43
38806;BME280;25635;51.146;17.162;2022-12-07T12:55:12;99412.27;;;2.87;84.52
38806;BME280;25635;51.146;17.162;2022-12-07T12:57:42;99415.27;;;2.88;83.86
38806;BME280;25635;51.146;17.162;2022-12-07T13:00:18;99417.45;;;2.89;84.32
38806;BME280;25635;51.146;17.162;2022-12-07T13:02:55;99420.48;;;2.91;85.21
38806;BME280;25635;51.146;17.162;2022-12-07T13:05:30;99404.98;;;2.93;83.79
38806;BME280;25635;51.146;17.162;2022-12-07T13:08:21;99417.50;;;2.93;82.66
38806;BME280;25635;51.146;17.162;2022-12-07T13:10:44;99423.09;;;2.94;84.01
38806;BME280;25635;51.146;17.162;2022-12-07T13:18:36;99419.63;;;2.92;83.26
38806;BME280;25635;51.146;17.162;2022-12-07T13:26:24;99421.80;;;2.94;84.62
38806;BME280;25635;51.146;17.162;2022-12-07T13:31:51;99425.22;;;2.92;83.87
38806;BME280;25635;51.146;17.162;2022-12-07T13:34:38;99435.58;;;2.93;84.71
38806;BME280;25635;51.146;17.162;2022-12-07T13:37:25;99426.94;;;2.93;84.42
38806;BME280;25635;51.146;17.162;2022-12-07T13:40:10;99429.52;;;2.93;84.29
38806;BME280;25635;51.146;17.162;2022-12-07T13:42:39;99438.13;;;2.92;83.60
38806;BME280;25635;51.146;17.162;2022-12-07T13:45:33;99433.38;;;2.90;84.44
38806;BME280;25635;51.146;17.162;2022-12-07T13:50:55;99433.36;;;2.87;83.50
38806;BME280;25635;51.146;17.162;2022-12-07T13:53:22;99439.80;;;2.88;84.49
38806;BME280;25635;51.146;17.162;2022-12-07T13:55:50;99435.08;;;2.88;84.46
38806;BME280;25635;51.146;17.162;2022-12-07T13:58:17;99435.51;;;2.87;84.27
38806;BME280;25635;51.146;17.162;2022-12-07T14:00:43;99430.31;;;2.86;84.15
38806;BME280;25635;51.146;17.162;2022-12-07T14:05:44;99430.77;;;2.87;84.72
38806;BME280;25635;51.146;17.162;2022-12-07T14:13:33;99424.72;;;2.86;84.38
38806;BME280;25635;51.146;17.162;2022-12-07T14:16:22;99419.56;;;2.84;83.81
38806;BME280;25635;51.146;17.162;2022-12-07T14:18:39;99411.73;;;2.80;83.39
38806;BME280;25635;51.146;17.162;2022-12-07T14:23:45;99411.27;;;2.74;83.75
38806;BME280;25635;51.146;17.162;2022-12-07T14:26:16;99424.18;;;2.74;83.00
38806;BME280;25635;51.146;17.162;2022-12-07T14:28:47;99418.58;;;2.75;83.76
38806;BME280;25635;51.146;17.162;2022-12-07T14:31:16;99419.82;;;2.72;83.12
38806;BME280;25635;51.146;17.162;2022-12-07T14:33:43;99418.13;;;2.72;83.46
38806;BME280;25635;51.146;17.162;2022-12-07T14:36:13;99419.80;;;2.69;83.31
38806;BME280;25635;51.146;17.162;2022-12-07T14:38:40;99425.83;;;2.69;83.35
38806;BME280;25635;51.146;17.162;2022-12-07T14:41:13;99427.52;;;2.67;82.93
38806;BME280;25635;51.146;17.162;2022-12-07T14:44:00;99424.51;;;2.68;82.69
38806;BME280;25635;51.146;17.162;2022-12-07T14:46:26;99423.63;;;2.66;83.60
38806;BME280;25635;51.146;17.162;2022-12-07T14:48:52;99424.92;;;2.64;82.82
38806;BME280;25635;51.146;17.162;2022-12-07T14:51:18;99428.33;;;2.63;83.36
38806;BME280;25635;51.146;17.162;2022-12-07T14:53:48;99433.07;;;2.62;83.56
38806;BME280;25635;51.146;17.162;2022-12-07T14:56:16;99438.66;;;2.63;82.67
38806;BME280;25635;51.146;17.162;2022-12-07T14:58:42;99436.09;;;2.61;81.95